Terminal Aerodrome Forecast
Issued by NWS

Home | Current Version | Previous Version | Text Only | Print | Product List | Glossary On
Versions: 1 2 3 4 5 6 7 8 9 10 11 12 13 14
000
FTUS45 KSLC 301120
TAFPVU
TAF
KPVU 301120Z 3012/3112 VRB05KT P6SM FEW080 SCT120
     FM301500 15008KT P6SM VCSH SCT050 BKN070
     FM302300 30015G25KT 6SM -RA SCT020 BKN040
     FM310700 34016G28KT P6SM VCSH SCT020 BKN040=

USA.gov is the U.S. government's official web portal to all federal, state and local government web resources and services.